Time;durP1;ratioP1;P1;durP2;ratioP2;P2;SDS_P1;SDS_P2;PMS_P1;PMS_P2;Temp;Humidity;BMP_temperature;BMP_pressure;BME280_temperature;BME280_humidity;BME280_pressure;Samples;Min_cycle;Max_cycle;Signal;HPM_P1;HPM_P2
2023/07/04 00:00:40;;;;;;;7.13;3.38;;;19.20;99.90;;;;;;5009101;28;20292;-75
2023/07/04 00:03:05;;;;;;;8.02;3.83;;;19.20;99.90;;;;;;5007103;28;20217;-75
2023/07/04 00:05:31;;;;;;;11.18;4.45;;;19.20;99.90;;;;;;5011272;28;20234;-75
2023/07/04 00:07:57;;;;;;;9.25;4.00;;;19.20;99.90;;;;;;5003430;28;20236;-72
2023/07/04 00:10:23;;;;;;;8.13;4.03;;;19.20;99.90;;;;;;5000390;28;20352;-74
2023/07/04 00:12:48;;;;;;;11.75;4.40;;;19.10;99.90;;;;;;4999754;28;20296;-74
2023/07/04 00:15:14;;;;;;;9.38;4.25;;;19.20;99.90;;;;;;5018934;28;20217;-74
2023/07/04 00:17:42;;;;;;;11.13;4.43;;;19.10;99.90;;;;;;5019121;28;20220;-74
2023/07/04 00:20:09;;;;;;;12.15;4.10;;;19.10;99.90;;;;;;5016695;28;20189;-73
2023/07/04 00:22:36;;;;;;;7.70;3.97;;;19.10;99.90;;;;;;5013148;28;20232;-74
2023/07/04 00:25:04;;;;;;;8.55;3.85;;;19.20;99.90;;;;;;5014032;28;20213;-73
2023/07/04 00:27:33;;;;;;;10.18;3.70;;;19.10;99.90;;;;;;5014829;28;20558;-74
2023/07/04 00:29:59;;;;;;;5.93;3.63;;;19.10;99.90;;;;;;5010731;28;20221;-73
2023/07/04 00:32:25;;;;;;;9.25;4.03;;;19.10;99.90;;;;;;5009016;28;20181;-75
2023/07/04 00:34:51;;;;;;;9.70;4.10;;;19.00;99.90;;;;;;5009328;28;20588;-75
2023/07/04 00:37:21;;;;;;;11.43;4.63;;;19.00;99.90;;;;;;5006435;28;20279;-75
2023/07/04 00:39:50;;;;;;;8.20;3.80;;;19.10;99.90;;;;;;5010720;28;20217;-75
2023/07/04 00:42:16;;;;;;;9.90;3.80;;;19.00;99.90;;;;;;5013938;28;20751;-75
2023/07/04 00:44:47;;;;;;;8.68;4.07;;;19.00;99.90;;;;;;5004824;28;20219;-74
2023/07/04 00:47:21;;;;;;;8.65;4.30;;;19.10;99.90;;;;;;5001315;28;20222;-76
2023/07/04 00:49:57;;;;;;;7.63;3.95;;;19.10;99.90;;;;;;5001578;28;20298;-74
2023/07/04 00:52:33;;;;;;;12.00;4.32;;;19.10;99.90;;;;;;5010001;28;20208;-76
2023/07/04 00:55:01;;;;;;;8.82;4.32;;;19.10;99.90;;;;;;5018586;28;20268;-74
2023/07/04 00:57:32;;;;;;;9.02;3.90;;;19.20;99.90;;;;;;5034616;28;20620;-75
2023/07/04 01:00:10;;;;;;;7.85;4.00;;;19.20;99.90;;;;;;5014856;28;20220;-74
2023/07/04 01:02:37;;;;;;;8.43;4.57;;;19.20;99.90;;;;;;5013811;28;20168;-76
2023/07/04 01:05:03;;;;;;;11.80;4.72;;;19.20;99.90;;;;;;5010478;28;20265;-74
2023/07/04 01:07:48;;;;;;;9.80;4.35;;;19.20;99.90;;;;;;5012564;28;20589;-75
2023/07/04 01:10:27;;;;;;;9.25;4.03;;;19.20;99.90;;;;;;5015988;28;20240;-75
2023/07/04 01:12:53;;;;;;;7.68;3.58;;;19.20;99.90;;;;;;5015194;28;20211;-75
2023/07/04 01:15:18;;;;;;;7.65;3.97;;;19.20;99.90;;;;;;5011967;28;20758;-72
2023/07/04 01:17:44;;;;;;;7.97;4.25;;;19.20;99.90;;;;;;5015131;28;20247;-75
2023/07/04 01:20:14;;;;;;;8.70;4.50;;;19.20;99.90;;;;;;5006819;28;20204;-74
2023/07/04 01:23:07;;;;;;;9.88;4.22;;;19.10;99.90;;;;;;5009420;28;20211;-74
2023/07/04 01:26:19;;;;;;;10.65;4.40;;;19.10;99.90;;;;;;5007735;28;20213;-76
2023/07/04 01:28:46;;;;;;;9.43;4.55;;;19.20;99.90;;;;;;5005412;28;20240;-74
2023/07/04 01:31:12;;;;;;;8.52;4.25;;;19.10;99.90;;;;;;5013884;28;20745;-75
2023/07/04 01:33:40;;;;;;;7.60;4.00;;;19.10;99.90;;;;;;5019547;28;20228;-75
2023/07/04 01:36:09;;;;;;;11.43;4.28;;;19.10;99.90;;;;;;5019620;28;20213;-75
2023/07/04 01:38:35;;;;;;;11.07;4.80;;;19.10;99.90;;;;;;5019831;28;20628;-74
2023/07/04 01:41:01;;;;;;;10.07;4.25;;;19.10;99.90;;;;;;5014400;28;20660;-73
2023/07/04 01:43:27;;;;;;;9.60;4.45;;;19.10;99.90;;;;;;5016383;28;20242;-75
2023/07/04 01:45:52;;;;;;;9.98;4.43;;;19.10;99.90;;;;;;5016761;28;20217;-75
2023/07/04 01:48:18;;;;;;;9.07;4.15;;;19.10;99.90;;;;;;5013154;28;20213;-74
2023/07/04 01:50:44;;;;;;;12.93;4.30;;;19.10;99.90;;;;;;5012817;28;20253;-74
2023/07/04 01:53:10;;;;;;;8.73;3.63;;;19.10;99.90;;;;;;5009126;28;20193;-75
2023/07/04 01:55:35;;;;;;;9.23;4.30;;;19.10;99.90;;;;;;5013906;28;20213;-73
2023/07/04 01:58:01;;;;;;;9.55;4.03;;;19.10;99.90;;;;;;5008199;28;20209;-76
2023/07/04 02:00:27;;;;;;;8.73;3.72;;;19.10;99.90;;;;;;5004287;28;20265;-75
2023/07/04 02:02:52;;;;;;;10.93;4.05;;;19.10;99.90;;;;;;5011788;28;20252;-74
2023/07/04 02:05:19;;;;;;;11.32;4.53;;;19.10;99.90;;;;;;5003948;28;20181;-74
2023/07/04 02:07:46;;;;;;;9.07;4.28;;;19.10;99.90;;;;;;5005175;28;20197;-74
2023/07/04 02:10:11;;;;;;;6.55;3.67;;;19.10;99.90;;;;;;5009315;28;20843;-74
2023/07/04 02:12:37;;;;;;;8.02;4.50;;;19.10;99.90;;;;;;5022744;28;20204;-73
2023/07/04 02:15:03;;;;;;;8.98;4.10;;;19.00;99.90;;;;;;5014112;28;20213;-72
2023/07/04 02:17:29;;;;;;;9.68;4.30;;;19.10;99.90;;;;;;5019748;28;20683;-74
2023/07/04 02:19:54;;;;;;;7.90;4.07;;;19.00;99.90;;;;;;5017368;28;20208;-75
2023/07/04 02:22:20;;;;;;;12.43;4.40;;;19.10;99.90;;;;;;5017781;28;20209;-73
2023/07/04 02:24:46;;;;;;;9.05;4.25;;;19.10;99.90;;;;;;5012533;28;20213;-74
2023/07/04 02:27:12;;;;;;;8.10;3.40;;;19.00;99.90;;;;;;5013442;28;20228;-74
2023/07/04 02:29:37;;;;;;;8.57;3.83;;;19.00;99.90;;;;;;5010309;28;20571;-74
2023/07/04 02:32:03;;;;;;;8.68;4.40;;;19.00;99.90;;;;;;5016080;28;20189;-74
2023/07/04 02:34:29;;;;;;;8.57;4.10;;;19.00;99.90;;;;;;5007780;28;20205;-75
2023/07/04 02:36:54;;;;;;;12.85;6.15;;;19.00;99.90;;;;;;5006678;28;20842;-73
2023/07/04 02:39:21;;;;;;;12.05;4.40;;;19.00;99.90;;;;;;5001231;28;20205;-74
2023/07/04 02:41:47;;;;;;;6.75;4.30;;;19.00;99.90;;;;;;5008653;28;20259;-75
2023/07/04 02:44:12;;;;;;;12.52;4.93;;;18.90;99.90;;;;;;5006129;28;20944;-74
2023/07/04 02:46:38;;;;;;;11.88;4.75;;;18.90;99.90;;;;;;5004354;28;20209;-74
2023/07/04 02:49:05;;;;;;;11.70;4.28;;;18.90;99.90;;;;;;5008793;28;20216;-74
2023/07/04 02:51:32;;;;;;;10.13;4.57;;;18.90;99.90;;;;;;5008252;28;20208;-73
2023/07/04 02:53:58;;;;;;;11.95;4.93;;;18.90;99.90;;;;;;5018395;28;20201;-74
2023/07/04 02:56:23;;;;;;;8.98;4.38;;;18.90;99.90;;;;;;5016637;28;20246;-74
2023/07/04 02:58:49;;;;;;;11.07;4.60;;;18.90;99.90;;;;;;5010480;28;20777;-72
2023/07/04 03:01:15;;;;;;;8.35;4.20;;;18.80;99.90;;;;;;5012034;28;20206;-73
2023/07/04 03:03:40;;;;;;;11.23;4.60;;;18.90;99.90;;;;;;5011648;28;20201;-74
2023/07/04 03:06:07;;;;;;;11.55;4.80;;;18.90;99.90;;;;;;5008442;28;20865;-73
2023/07/04 03:08:32;;;;;;;12.68;5.13;;;18.90;99.90;;;;;;5013743;28;20674;-74
2023/07/04 03:10:58;;;;;;;10.52;4.47;;;18.90;99.90;;;;;;5008187;28;20208;-74
2023/07/04 03:13:23;;;;;;;8.98;4.70;;;18.90;99.90;;;;;;5006123;28;20213;-73
2023/07/04 03:15:49;;;;;;;8.23;4.60;;;18.90;99.90;;;;;;5008213;28;20212;-74
2023/07/04 03:18:15;;;;;;;7.00;3.78;;;18.90;99.90;;;;;;5005182;28;20240;-73
2023/07/04 03:20:40;;;;;;;10.07;4.47;;;18.90;99.90;;;;;;5006041;28;20239;-74
2023/07/04 03:23:06;;;;;;;8.77;4.45;;;18.90;99.90;;;;;;5001576;28;20229;-73
2023/07/04 03:25:32;;;;;;;8.30;4.70;;;18.90;99.90;;;;;;5003952;28;20232;-73
2023/07/04 03:27:57;;;;;;;8.68;4.68;;;18.90;99.90;;;;;;5011824;28;20213;-73
2023/07/04 03:30:23;;;;;;;9.40;4.32;;;18.90;99.90;;;;;;5013573;28;20699;-73
2023/07/04 03:32:49;;;;;;;10.00;4.55;;;18.90;99.90;;;;;;5016898;28;20648;-72
2023/07/04 03:35:14;;;;;;;12.38;4.90;;;18.90;99.90;;;;;;5010151;28;20199;-75
2023/07/04 03:37:40;;;;;;;9.45;5.03;;;18.90;99.90;;;;;;5009979;28;20216;-74
2023/07/04 03:40:10;;;;;;;8.80;4.93;;;18.90;99.90;;;;;;5011675;28;20205;-74
2023/07/04 03:42:38;;;;;;;9.05;4.65;;;19.00;99.90;;;;;;5010560;28;20210;-75
2023/07/04 03:45:05;;;;;;;9.88;4.43;;;19.00;99.90;;;;;;5008314;28;20251;-75
2023/07/04 03:47:31;;;;;;;9.90;4.90;;;19.00;99.90;;;;;;5006729;28;20212;-74
2023/07/04 03:49:57;;;;;;;8.73;4.35;;;19.10;99.90;;;;;;5009352;28;20201;-75
2023/07/04 03:52:23;;;;;;;8.55;4.53;;;19.60;99.90;;;;;;5005104;28;20233;-74
2023/07/04 03:54:48;;;;;;;9.30;4.93;;;19.80;99.90;;;;;;5010159;28;20205;-74
2023/07/04 03:57:14;;;;;;;9.32;4.28;;;20.30;99.90;;;;;;5002581;28;20223;-75
2023/07/04 03:59:39;;;;;;;8.52;4.78;;;20.80;99.90;;;;;;5011366;28;20797;-74
2023/07/04 04:02:05;;;;;;;10.13;3.80;;;21.30;99.90;;;;;;5001969;28;20184;-74
2023/07/04 04:04:36;;;;;;;9.40;4.20;;;22.10;99.90;;;;;;5004579;28;20239;-75
2023/07/04 04:07:02;;;;;;;10.60;4.95;;;22.90;99.90;;;;;;5014528;28;20205;-74
2023/07/04 04:09:28;;;;;;;10.18;4.78;;;23.40;99.90;;;;;;5015100;28;20217;-74
2023/07/04 04:11:53;;;;;;;10.73;4.65;;;23.70;99.90;;;;;;5008994;28;20259;-75
2023/07/04 04:14:19;;;;;;;10.27;4.75;;;24.30;99.90;;;;;;5010305;28;20260;-74
2023/07/04 04:16:45;;;;;;;10.07;5.13;;;24.40;99.90;;;;;;5008775;28;20651;-75
2023/07/04 04:19:10;;;;;;;7.28;4.50;;;24.90;99.90;;;;;;5006508;28;20237;-73
2023/07/04 04:21:36;;;;;;;8.68;4.53;;;25.10;99.90;;;;;;5009655;28;20675;-74
2023/07/04 04:24:01;;;;;;;7.55;4.05;;;24.70;99.90;;;;;;5009951;28;20221;-74
2023/07/04 04:26:32;;;;;;;7.90;4.40;;;25.20;99.90;;;;;;5005248;28;20260;-74
2023/07/04 04:28:58;;;;;;;8.93;4.05;;;25.80;99.90;;;;;;5010509;28;20219;-74
2023/07/04 04:31:24;;;;;;;8.23;4.13;;;26.20;99.90;;;;;;5006099;28;20206;-74
2023/07/04 04:33:50;;;;;;;7.75;4.15;;;26.30;99.90;;;;;;5005320;28;20315;-74
2023/07/04 04:36:17;;;;;;;9.57;4.35;;;26.50;99.90;;;;;;5002442;28;20656;-75
2023/07/04 04:38:43;;;;;;;8.40;4.38;;;26.90;99.90;;;;;;5004087;28;20785;-74
2023/07/04 04:41:09;;;;;;;10.00;5.00;;;27.40;99.90;;;;;;5000150;28;20181;-72
2023/07/04 04:43:35;;;;;;;7.80;4.68;;;25.90;99.90;;;;;;5003105;28;20699;-74
2023/07/04 04:46:02;;;;;;;8.65;4.05;;;24.80;99.90;;;;;;5013698;28;20232;-75
2023/07/04 04:48:35;;;;;;;8.93;4.85;;;23.70;99.90;;;;;;5011709;28;20209;-74
2023/07/04 04:51:09;;;;;;;13.52;5.18;;;23.20;99.90;;;;;;5006996;28;20217;-74
2023/07/04 04:53:39;;;;;;;9.15;5.05;;;23.00;99.90;;;;;;5011475;28;20172;-74
2023/07/04 04:56:06;;;;;;;11.10;4.70;;;22.70;99.90;;;;;;5008027;28;20221;-74
2023/07/04 04:58:32;;;;;;;9.15;4.68;;;22.30;99.90;;;;;;5010292;28;20224;-75
2023/07/04 05:01:16;;;;;;;9.85;4.53;;;21.90;99.90;;;;;;5007138;28;20212;-75
2023/07/04 05:03:42;;;;;;;8.43;4.65;;;21.70;99.90;;;;;;5004863;28;20691;-74
2023/07/04 05:06:08;;;;;;;9.57;4.13;;;21.50;99.90;;;;;;5003692;28;20635;-74
2023/07/04 05:08:34;;;;;;;11.55;4.90;;;21.10;99.90;;;;;;5005922;28;20274;-73
2023/07/04 05:11:06;;;;;;;9.10;4.22;;;21.00;99.90;;;;;;5008544;28;20295;-75
2023/07/04 05:13:36;;;;;;;11.02;4.78;;;21.00;99.90;;;;;;5003650;28;20202;-74
2023/07/04 05:16:06;;;;;;;10.27;4.75;;;20.90;99.90;;;;;;5001385;28;20634;-74
2023/07/04 05:18:34;;;;;;;9.57;4.57;;;21.20;99.90;;;;;;5001423;28;20210;-74
2023/07/04 05:21:04;;;;;;;11.77;4.80;;;22.10;99.90;;;;;;5006975;28;20216;-75
2023/07/04 05:23:30;;;;;;;10.77;4.32;;;24.10;99.90;;;;;;5017283;28;20178;-73
2023/07/04 05:26:08;;;;;;;9.68;4.50;;;25.40;99.90;;;;;;5020292;28;20193;-75
2023/07/04 05:28:33;;;;;;;9.90;4.68;;;26.70;99.90;;;;;;5009011;28;20219;-74
2023/07/04 05:31:01;;;;;;;10.75;4.75;;;27.30;99.90;;;;;;5014782;28;20221;-74
2023/07/04 05:33:27;;;;;;;7.35;4.40;;;27.50;99.90;;;;;;5010954;28;20245;-75
2023/07/04 05:36:09;;;;;;;8.70;4.47;;;28.00;99.90;;;;;;5012113;28;20220;-75
2023/07/04 05:38:36;;;;;;;7.30;4.50;;;28.60;99.90;;;;;;5010774;28;20177;-74
2023/07/04 05:41:02;;;;;;;13.82;5.20;;;28.90;99.90;;;;;;5008460;28;20227;-74
2023/07/04 05:43:28;;;;;;;10.10;4.82;;;29.00;99.90;;;;;;5008735;28;20210;-75
2023/07/04 05:45:54;;;;;;;10.15;5.45;;;29.00;99.40;;;;;;5006715;28;20213;-74
2023/07/04 05:48:21;;;;;;;13.60;5.13;;;29.10;99.50;;;;;;5002143;28;20206;-75
2023/07/04 05:50:57;;;;;;;11.90;4.65;;;28.80;98.80;;;;;;5008589;28;20312;-75
2023/07/04 05:53:24;;;;;;;8.85;4.82;;;28.60;99.30;;;;;;5002162;28;20960;-74
2023/07/04 05:55:51;;;;;;;9.18;5.45;;;27.40;99.90;;;;;;5015017;28;20236;-74
2023/07/04 05:58:19;;;;;;;9.15;4.90;;;26.40;99.90;;;;;;5001865;28;20209;-74
2023/07/04 06:00:47;;;;;;;11.95;4.90;;;26.40;99.90;;;;;;5006133;28;20224;-75
2023/07/04 06:03:16;;;;;;;9.13;4.10;;;26.60;99.90;;;;;;5016739;28;20213;-75
2023/07/04 06:05:42;;;;;;;7.60;4.10;;;27.60;99.90;;;;;;5012385;28;20213;-74
2023/07/04 06:08:08;;;;;;;11.25;4.32;;;28.50;99.80;;;;;;5015962;28;20181;-74
2023/07/04 06:10:35;;;;;;;9.35;4.05;;;28.50;99.10;;;;;;5012506;28;20237;-75
2023/07/04 06:13:01;;;;;;;17.70;4.40;;;29.00;98.90;;;;;;5011951;28;20201;-76
2023/07/04 06:15:27;;;;;;;12.73;4.65;;;30.00;97.30;;;;;;5009945;28;20221;-74
2023/07/04 06:17:52;;;;;;;11.63;4.35;;;30.60;95.70;;;;;;5013564;28;20224;-75
2023/07/04 06:20:19;;;;;;;8.80;4.20;;;31.10;94.70;;;;;;5009040;28;20184;-74
2023/07/04 06:22:45;;;;;;;9.82;5.30;;;31.00;93.60;;;;;;5013481;28;20187;-75
2023/07/04 06:25:10;;;;;;;7.93;3.38;;;30.60;93.80;;;;;;5006062;28;20217;-75
2023/07/04 06:27:36;;;;;;;7.88;3.35;;;30.40;93.20;;;;;;5007476;28;20222;-75
2023/07/04 06:30:02;;;;;;;6.63;3.20;;;30.20;93.30;;;;;;5010728;28;20741;-76
2023/07/04 06:32:28;;;;;;;7.68;3.40;;;30.70;93.00;;;;;;5004530;28;20265;-75
2023/07/04 06:34:53;;;;;;;6.35;3.40;;;31.20;92.20;;;;;;5005981;28;20235;-75
2023/07/04 06:37:19;;;;;;;5.55;2.83;;;31.40;91.80;;;;;;5005520;28;20732;-74
2023/07/04 06:39:44;;;;;;;6.10;2.97;;;31.20;91.80;;;;;;5015931;28;20212;-75
2023/07/04 06:42:10;;;;;;;8.35;3.00;;;31.30;91.30;;;;;;5016511;28;20213;-75
2023/07/04 06:44:36;;;;;;;8.95;3.33;;;31.40;90.80;;;;;;5013802;28;20217;-75
2023/07/04 06:47:01;;;;;;;6.15;3.25;;;31.40;90.80;;;;;;5016631;28;20220;-76
2023/07/04 06:49:27;;;;;;;6.43;3.05;;;31.90;90.10;;;;;;5009483;28;20217;-75
2023/07/04 06:51:53;;;;;;;8.15;2.95;;;32.00;89.60;;;;;;5012709;28;20718;-74
2023/07/04 06:54:18;;;;;;;5.65;3.47;;;32.20;89.40;;;;;;5008403;28;20299;-74
2023/07/04 06:56:44;;;;;;;17.90;3.22;;;31.90;88.50;;;;;;5010935;28;20703;-75
2023/07/04 06:59:10;;;;;;;4.60;2.42;;;31.80;88.70;;;;;;5010420;28;20192;-75
2023/07/04 07:01:38;;;;;;;7.18;3.10;;;32.00;87.30;;;;;;5010048;28;20730;-75
2023/07/04 07:04:04;;;;;;;8.95;2.70;;;32.20;86.20;;;;;;5008225;28;20216;-76
2023/07/04 07:06:30;;;;;;;5.55;2.78;;;31.50;87.00;;;;;;5006340;28;20599;-75
2023/07/04 07:08:55;;;;;;;6.53;3.03;;;32.00;87.20;;;;;;5006087;28;20217;-74
2023/07/04 07:11:22;;;;;;;7.35;2.63;;;31.90;85.60;;;;;;5002477;28;20207;-74
2023/07/04 07:13:47;;;;;;;5.45;2.90;;;30.20;88.80;;;;;;5004696;28;20670;-76
2023/07/04 07:16:20;;;;;;;4.78;2.72;;;30.50;89.40;;;;;;5001501;28;20225;-74
2023/07/04 07:18:47;;;;;;;5.68;2.85;;;29.90;90.00;;;;;;5007840;28;20590;-75
2023/07/04 07:21:18;;;;;;;4.88;3.17;;;29.60;90.40;;;;;;5010278;28;20244;-75
2023/07/04 07:23:43;;;;;;;4.72;2.83;;;29.30;90.80;;;;;;5010586;28;20679;-75
2023/07/04 07:26:11;;;;;;;4.68;2.58;;;29.30;91.30;;;;;;5012181;28;20213;-74
2023/07/04 07:28:39;;;;;;;6.13;3.08;;;29.30;91.20;;;;;;5016674;28;20216;-76
2023/07/04 07:31:07;;;;;;;5.70;3.30;;;28.20;92.20;;;;;;5012045;28;20494;-76
2023/07/04 07:33:35;;;;;;;11.27;3.55;;;29.10;92.10;;;;;;5011540;28;20206;-74
2023/07/04 07:36:12;;;;;;;8.98;4.05;;;29.10;92.00;;;;;;5008112;28;20274;-74
2023/07/04 07:38:38;;;;;;;5.07;3.42;;;29.90;90.40;;;;;;5008026;28;20279;-75
2023/07/04 07:41:05;;;;;;;8.05;3.28;;;30.60;90.00;;;;;;5008992;28;20181;-75
2023/07/04 07:43:31;;;;;;;7.85;3.17;;;30.90;87.20;;;;;;5004080;28;20610;-74
2023/07/04 07:45:57;;;;;;;5.30;3.22;;;29.80;89.20;;;;;;5005864;28;20209;-75
2023/07/04 07:48:22;;;;;;;8.73;3.45;;;30.10;90.00;;;;;;5002194;28;20317;-74
2023/07/04 07:50:49;;;;;;;8.93;3.05;;;30.50;88.90;;;;;;5005744;28;20217;-76
2023/07/04 07:53:15;;;;;;;9.20;3.00;;;30.50;88.60;;;;;;5008082;28;20280;-75
2023/07/04 07:55:41;;;;;;;6.53;2.70;;;29.90;88.40;;;;;;5012039;28;20309;-75
2023/07/04 07:58:08;;;;;;;7.22;2.83;;;30.30;88.70;;;;;;5012299;28;20233;-75
2023/07/04 08:00:34;;;;;;;3.83;2.45;;;30.90;87.70;;;;;;5010109;28;20295;-73
2023/07/04 08:02:59;;;;;;;7.72;2.42;;;30.40;87.70;;;;;;5010162;28;20208;-75
2023/07/04 08:05:25;;;;;;;3.78;2.25;;;30.10;87.90;;;;;;5009667;28;20666;-75
2023/07/04 08:07:51;;;;;;;6.88;2.83;;;29.90;89.00;;;;;;5011643;28;20197;-72
2023/07/04 08:10:17;;;;;;;5.28;2.92;;;30.60;87.70;;;;;;5010373;28;20216;-73
2023/07/04 08:12:43;;;;;;;6.18;2.92;;;31.30;86.80;;;;;;5006731;28;20303;-73
2023/07/04 08:15:10;;;;;;;5.63;2.67;;;31.70;85.00;;;;;;5008484;28;20259;-74
2023/07/04 08:17:36;;;;;;;5.03;2.40;;;32.00;83.80;;;;;;5004618;28;20236;-73
2023/07/04 08:20:03;;;;;;;6.35;3.05;;;31.60;83.80;;;;;;5009086;28;20267;-74
2023/07/04 08:22:29;;;;;;;7.55;4.07;;;31.60;85.00;;;;;;5003767;28;20241;-74
2023/07/04 08:24:54;;;;;;;5.75;2.58;;;31.60;84.30;;;;;;5006009;28;20237;-75
2023/07/04 08:27:24;;;;;;;5.85;3.10;;;32.20;83.10;;;;;;5007429;28;20221;-74
2023/07/04 08:29:50;;;;;;;9.82;4.22;;;32.80;82.20;;;;;;5004314;28;20283;-75
2023/07/04 08:32:17;;;;;;;5.57;3.05;;;33.10;81.60;;;;;;5001893;28;20847;-74
2023/07/04 08:34:44;;;;;;;3.33;2.53;;;32.50;80.60;;;;;;5002051;28;20210;-71
2023/07/04 08:37:10;;;;;;;8.93;3.33;;;30.70;84.60;;;;;;5014276;28;20217;-74
2023/07/04 08:39:36;;;;;;;5.13;2.45;;;29.90;86.50;;;;;;5017631;28;20204;-74
2023/07/04 08:42:06;;;;;;;6.68;2.80;;;28.70;88.30;;;;;;5014224;28;20204;-76
2023/07/04 08:44:47;;;;;;;7.50;2.80;;;28.40;89.70;;;;;;5007543;28;20173;-73
2023/07/04 08:47:16;;;;;;;5.95;2.80;;;29.30;88.00;;;;;;5008867;28;20201;-74
2023/07/04 08:49:56;;;;;;;4.90;2.25;;;29.30;87.30;;;;;;5009815;28;20315;-74
2023/07/04 08:52:52;;;;;;;4.65;2.10;;;28.40;88.30;;;;;;5005230;28;20204;-73
2023/07/04 08:55:19;;;;;;;4.15;2.38;;;28.20;90.50;;;;;;5006029;28;20211;-74
2023/07/04 08:58:03;;;;;;;5.50;2.40;;;28.40;89.90;;;;;;5003657;28;20210;-74
2023/07/04 09:00:37;;;;;;;6.10;2.30;;;28.80;89.00;;;;;;5007717;28;20684;-74
2023/07/04 09:03:02;;;;;;;7.10;2.65;;;29.70;87.00;;;;;;5004906;28;20201;-74
2023/07/04 09:06:03;;;;;;;5.38;2.40;;;30.10;84.00;;;;;;5004808;28;20185;-73
2023/07/04 09:08:40;;;;;;;5.43;2.30;;;30.40;81.80;;;;;;5000453;28;20548;-74
2023/07/04 09:11:12;;;;;;;5.57;2.45;;;30.50;82.20;;;;;;5008493;28;20211;-73
2023/07/04 09:13:47;;;;;;;4.50;2.20;;;30.40;81.90;;;;;;5004518;28;20721;-73
2023/07/04 09:16:21;;;;;;;7.10;3.22;;;28.90;82.50;;;;;;5008618;28;20216;-72
2023/07/04 09:19:00;;;;;;;8.32;2.80;;;27.80;85.60;;;;;;5011043;28;20702;-75
2023/07/04 09:21:28;;;;;;;3.72;2.05;;;27.00;87.50;;;;;;5005763;28;20205;-74
2023/07/04 09:23:58;;;;;;;7.00;2.28;;;26.70;89.10;;;;;;5012544;28;20265;-74
2023/07/04 09:26:41;;;;;;;5.10;2.22;;;26.90;88.60;;;;;;5006539;28;20228;-74
2023/07/04 09:29:08;;;;;;;5.05;2.25;;;26.80;88.60;;;;;;5009435;28;20255;-74
2023/07/04 09:31:38;;;;;;;5.40;2.40;;;26.20;90.50;;;;;;5010747;28;20201;-74
2023/07/04 09:34:28;;;;;;;5.13;2.08;;;26.60;90.80;;;;;;5009809;28;20263;-74
2023/07/04 09:36:54;;;;;;;5.65;2.33;;;27.10;90.50;;;;;;5008654;28;20227;-74
2023/07/04 09:39:20;;;;;;;7.15;2.38;;;27.60;89.50;;;;;;5008465;28;20237;-74
2023/07/04 09:41:56;;;;;;;5.78;2.42;;;27.90;87.80;;;;;;5007055;28;20237;-76
2023/07/04 09:44:28;;;;;;;4.55;2.33;;;27.40;87.90;;;;;;5005166;28;20203;-74
2023/07/04 09:46:56;;;;;;;5.55;2.40;;;27.40;89.40;;;;;;5006024;28;20219;-73
2023/07/04 09:49:29;;;;;;;6.32;2.60;;;27.50;89.40;;;;;;5010484;28;20209;-74
2023/07/04 09:52:01;;;;;;;6.30;2.40;;;27.30;90.10;;;;;;5012092;28;20251;-75
2023/07/04 09:54:27;;;;;;;4.15;1.77;;;27.30;90.00;;;;;;5005439;28;20206;-74
2023/07/04 09:56:53;;;;;;;8.35;1.95;;;27.20;89.50;;;;;;5015546;28;20219;-75
2023/07/04 09:59:26;;;;;;;3.78;1.92;;;27.10;89.30;;;;;;5015441;28;20173;-75
2023/07/04 10:02:10;;;;;;;4.88;1.70;;;27.20;89.40;;;;;;5017670;28;20202;-75
2023/07/04 10:04:38;;;;;;;5.55;2.00;;;27.60;88.30;;;;;;5018069;28;20213;-79
2023/07/04 10:07:15;;;;;;;3.13;1.70;;;27.80;87.40;;;;;;5011952;28;20216;-73
2023/07/04 10:10:07;;;;;;;4.28;2.00;;;27.50;86.40;;;;;;5013358;28;20217;-75
2023/07/04 10:12:44;;;;;;;4.55;2.03;;;27.30;87.30;;;;;;5007338;28;20209;-73
2023/07/04 10:15:10;;;;;;;5.97;2.35;;;27.10;88.10;;;;;;5008592;28;20316;-73
2023/07/04 10:17:39;;;;;;;4.60;1.80;;;27.00;87.20;;;;;;5009739;28;20221;-73
2023/07/04 10:20:13;;;;;;;7.57;1.67;;;26.90;88.00;;;;;;5003231;28;20181;-74
2023/07/04 10:22:51;;;;;;;4.35;2.33;;;26.70;87.80;;;;;;5005548;28;20227;-75
2023/07/04 10:25:21;;;;;;;8.48;2.00;;;26.70;89.00;;;;;;5005157;28;20212;-75
2023/07/04 10:28:02;;;;;;;5.43;2.13;;;26.80;88.80;;;;;;5004707;28;20224;-74
2023/07/04 10:30:30;;;;;;;5.97;2.05;;;27.10;89.20;;;;;;5009832;28;20216;-75
2023/07/04 10:33:18;;;;;;;6.68;2.50;;;26.80;88.90;;;;;;5028725;28;20288;-74
2023/07/04 10:35:47;;;;;;;4.43;2.15;;;26.30;89.50;;;;;;5026650;28;20221;-74
2023/07/04 10:38:32;;;;;;;4.63;2.10;;;26.30;89.90;;;;;;5016602;28;20277;-75
2023/07/04 10:40:59;;;;;;;5.18;2.47;;;26.10;89.50;;;;;;5012108;28;20275;-75
2023/07/04 10:43:28;;;;;;;5.00;2.53;;;26.00;90.00;;;;;;5011033;28;20205;-74
2023/07/04 10:45:57;;;;;;;5.30;2.28;;;25.90;90.30;;;;;;5014359;28;20622;-75
2023/07/04 10:48:26;;;;;;;3.83;2.25;;;25.90;90.20;;;;;;5008902;28;20283;-75
2023/07/04 10:50:56;;;;;;;3.80;2.20;;;25.60;90.50;;;;;;5009647;28;20224;-76
2023/07/04 10:53:22;;;;;;;4.18;2.22;;;25.50;90.70;;;;;;5011047;28;20183;-73
2023/07/04 10:56:02;;;;;;;4.97;2.22;;;24.90;91.20;;;;;;5008316;28;20177;-74
2023/07/04 10:58:33;;;;;;;6.90;2.70;;;24.70;92.10;;;;;;5005031;28;20214;-74
2023/07/04 11:01:09;;;;;;;4.97;2.60;;;24.60;92.80;;;;;;5006640;28;20209;-75
2023/07/04 11:03:51;;;;;;;6.43;2.72;;;24.30;93.00;;;;;;5022018;28;20205;-74
2023/07/04 11:06:30;;;;;;;6.75;2.47;;;24.20;93.20;;;;;;5006133;28;20295;-74
2023/07/04 11:08:57;;;;;;;7.45;2.83;;;24.20;93.40;;;;;;5011491;28;20614;-74
2023/07/04 11:11:28;;;;;;;8.52;2.95;;;24.20;93.70;;;;;;5017944;28;20184;-74
2023/07/04 11:13:58;;;;;;;6.78;3.45;;;24.50;93.80;;;;;;5016379;28;20212;-74
2023/07/04 11:16:28;;;;;;;8.73;2.80;;;24.70;93.60;;;;;;5011009;28;20251;-75
2023/07/04 11:19:19;;;;;;;6.10;2.35;;;25.00;93.40;;;;;;5009155;28;20695;-75
2023/07/04 11:22:03;;;;;;;8.50;2.67;;;24.70;93.60;;;;;;5012844;28;20235;-75
2023/07/04 11:24:53;;;;;;;4.95;2.85;;;24.40;94.20;;;;;;5009022;28;20208;-76
2023/07/04 11:27:29;;;;;;;8.95;3.08;;;24.10;94.50;;;;;;5006871;28;20288;-75
2023/07/04 11:29:57;;;;;;;7.82;2.88;;;23.90;95.20;;;;;;5005730;28;20224;-75
2023/07/04 11:32:32;;;;;;;6.38;2.50;;;23.90;95.40;;;;;;5006068;28;20182;-75
2023/07/04 11:35:14;;;;;;;6.95;2.70;;;23.50;96.10;;;;;;5008138;28;20184;-74
2023/07/04 11:38:11;;;;;;;6.47;2.50;;;23.10;96.50;;;;;;5003431;28;20738;-74
2023/07/04 11:40:46;;;;;;;6.45;2.70;;;23.00;96.90;;;;;;4998604;28;20738;-74
2023/07/04 11:43:28;;;;;;;7.20;2.30;;;23.00;97.10;;;;;;5005673;28;20201;-74
2023/07/04 11:45:56;;;;;;;6.22;2.75;;;23.00;96.90;;;;;;5001316;28;20247;-73
2023/07/04 11:48:25;;;;;;;6.05;2.45;;;23.30;97.00;;;;;;5015598;28;20766;-75
2023/07/04 11:51:00;;;;;;;6.40;2.60;;;23.70;96.70;;;;;;5018007;28;20236;-75
2023/07/04 11:53:31;;;;;;;6.60;2.63;;;24.10;96.00;;;;;;5012947;28;20177;-74
2023/07/04 11:56:14;;;;;;;6.80;2.83;;;24.40;95.60;;;;;;5017481;28;20195;-77
2023/07/04 11:58:40;;;;;;;7.75;2.90;;;24.70;95.10;;;;;;5014364;28;20216;-76
2023/07/04 12:01:07;;;;;;;4.35;2.60;;;25.00;94.80;;;;;;5011385;28;20684;-75
2023/07/04 12:03:55;;;;;;;7.80;2.72;;;25.50;94.50;;;;;;5011697;28;20209;-75
2023/07/04 12:06:56;;;;;;;8.07;2.83;;;25.80;94.00;;;;;;5005239;28;20206;-75
2023/07/04 12:09:29;;;;;;;8.50;2.95;;;26.00;93.30;;;;;;5005086;28;20711;-74
2023/07/04 12:11:57;;;;;;;8.48;2.88;;;26.20;93.20;;;;;;5020239;23;20213;-71
2023/07/04 12:14:23;;;;;;;8.30;2.70;;;25.70;93.30;;;;;;5035260;28;20195;-71
2023/07/04 12:16:50;;;;;;;5.70;2.80;;;25.30;93.80;;;;;;5030557;28;20183;-71
2023/07/04 12:19:17;;;;;;;8.93;3.08;;;25.40;94.10;;;;;;5028438;28;20208;-71
2023/07/04 12:21:46;;;;;;;7.22;3.00;;;25.40;94.30;;;;;;5033039;28;20207;-71
2023/07/04 12:24:18;;;;;;;5.00;2.63;;;25.70;94.20;;;;;;5030932;28;20200;-71
2023/07/04 12:26:43;;;;;;;5.63;3.03;;;25.70;94.20;;;;;;5026238;28;20243;-72
2023/07/04 12:29:09;;;;;;;8.77;3.25;;;25.30;94.50;;;;;;5036095;28;20639;-71
2023/07/04 12:31:35;;;;;;;7.40;3.15;;;25.30;94.60;;;;;;5037453;28;20207;-72
2023/07/04 12:34:00;;;;;;;7.03;3.55;;;25.30;94.90;;;;;;5033571;28;20211;-71
2023/07/04 12:36:33;;;;;;;7.72;3.10;;;25.30;94.90;;;;;;5012909;28;20207;-72
2023/07/04 12:39:03;;;;;;;9.05;3.28;;;25.10;95.10;;;;;;5032624;28;20588;-71
2023/07/04 12:41:31;;;;;;;4.65;2.85;;;24.80;95.60;;;;;;5033094;28;20226;-72
2023/07/04 12:44:05;;;;;;;8.93;3.63;;;24.60;95.80;;;;;;5035045;28;20284;-71
2023/07/04 12:46:32;;;;;;;6.35;3.20;;;24.20;95.80;;;;;;5012415;28;20623;-71
2023/07/04 12:49:00;;;;;;;6.70;3.10;;;24.10;96.40;;;;;;5028462;28;20214;-70
2023/07/04 12:51:29;;;;;;;6.75;3.17;;;24.00;97.10;;;;;;5029415;28;20625;-72
2023/07/04 12:53:57;;;;;;;8.38;3.33;;;24.00;96.80;;;;;;5013516;28;20218;-71
2023/07/04 12:56:25;;;;;;;10.88;3.60;;;24.00;97.10;;;;;;5030036;28;20794;-71